createdAt,value
2018-03-08T00:00:43.526Z,84.40
2018-03-08T00:02:46.894Z,84.30
2018-03-08T00:04:50.258Z,84.20
2018-03-08T00:06:53.593Z,84.80
2018-03-08T00:08:57.038Z,84.90
2018-03-08T00:11:01.145Z,84.00
2018-03-08T00:13:05.260Z,84.70
2018-03-08T00:15:09.368Z,84.40
2018-03-08T00:17:13.477Z,84.40
2018-03-08T00:19:17.613Z,85.30
2018-03-08T00:21:20.937Z,85.30
2018-03-08T00:23:24.275Z,85.10
2018-03-08T00:25:28.384Z,85.70
2018-03-08T00:27:32.489Z,85.30
2018-03-08T00:29:36.608Z,85.70
2018-03-08T00:31:40.713Z,85.60
2018-03-08T00:33:44.068Z,85.40
2018-03-08T00:35:48.210Z,86.30
2018-03-08T00:37:52.293Z,85.70
2018-03-08T00:39:55.619Z,85.70
2018-03-08T00:41:59.716Z,85.20
2018-03-08T00:44:03.382Z,85.10
2018-03-08T00:46:06.788Z,85.60
2018-03-08T00:48:11.700Z,84.30
2018-03-08T00:50:15.093Z,84.70
2018-03-08T00:52:18.907Z,84.30
2018-03-08T00:54:22.264Z,84.90
2018-03-08T00:56:26.406Z,85.90
2018-03-08T00:58:30.534Z,86.20
2018-03-08T01:00:34.784Z,86.20
2018-03-08T01:02:38.115Z,86.20
2018-03-08T01:04:41.452Z,85.90
2018-03-08T01:06:46.334Z,85.40
2018-03-08T01:08:50.466Z,84.90
2018-03-08T01:10:54.595Z,85.00
2018-03-08T01:12:57.951Z,85.50
2018-03-08T01:15:01.934Z,85.90
2018-03-08T01:17:05.314Z,86.40
2018-03-08T01:19:08.635Z,85.70
2018-03-08T01:21:12.746Z,86.00
2018-03-08T01:23:16.098Z,86.10
2018-03-08T01:25:19.429Z,86.20
2018-03-08T01:27:22.773Z,85.10
2018-03-08T01:29:26.097Z,85.70
2018-03-08T01:31:29.878Z,86.10
2018-03-08T01:33:33.246Z,86.10
2018-03-08T01:35:37.505Z,85.70
2018-03-08T01:37:41.626Z,85.90
2018-03-08T01:39:44.966Z,85.80
2018-03-08T01:41:48.322Z,87.00
2018-03-08T01:43:53.336Z,87.00
2018-03-08T01:45:57.094Z,86.90
2018-03-08T01:48:00.428Z,87.00
2018-03-08T01:50:05.166Z,86.70
2018-03-08T01:52:12.360Z,86.10
2018-03-08T01:54:16.497Z,87.10
2018-03-08T01:56:19.857Z,87.00
2018-03-08T01:58:24.049Z,85.20
2018-03-08T02:00:28.402Z,85.10
2018-03-08T02:02:32.678Z,85.80
2018-03-08T02:04:36.798Z,85.80
2018-03-08T02:06:40.964Z,86.00
2018-03-08T02:08:45.213Z,85.10
2018-03-08T02:10:50.290Z,85.50
2018-03-08T02:12:53.675Z,85.30
2018-03-08T02:14:57.028Z,85.50
2018-03-08T02:17:01.168Z,85.60
2018-03-08T02:19:04.522Z,85.70
2018-03-08T02:21:07.850Z,85.60
2018-03-08T02:23:11.948Z,85.60
2018-03-08T02:25:16.056Z,84.60
2018-03-08T02:27:20.153Z,85.10
2018-03-08T02:29:23.511Z,85.10
2018-03-08T02:31:26.844Z,84.90
2018-03-08T02:33:30.959Z,85.90
2018-03-08T02:35:35.123Z,84.80
2018-03-08T02:37:38.468Z,84.80
2018-03-08T02:39:41.822Z,85.80
2018-03-08T02:41:45.171Z,86.50
2018-03-08T02:43:49.338Z,86.40
2018-03-08T02:45:52.902Z,86.30
2018-03-08T02:47:56.261Z,86.70
2018-03-08T02:50:00.146Z,86.40
2018-03-08T02:52:03.494Z,85.70
2018-03-08T02:54:06.853Z,85.80
2018-03-08T02:56:10.346Z,85.80
2018-03-08T02:58:14.629Z,85.80
2018-03-08T03:00:18.729Z,84.80
2018-03-08T03:02:22.847Z,84.70
2018-03-08T03:04:26.698Z,84.60
2018-03-08T03:06:30.065Z,85.00
2018-03-08T03:08:33.421Z,85.10
2018-03-08T03:10:37.535Z,85.00
2018-03-08T03:12:40.934Z,85.00
2018-03-08T03:14:44.986Z,85.30
2018-03-08T03:16:50.082Z,85.70
2018-03-08T03:18:54.214Z,84.80
2018-03-08T03:20:57.579Z,84.80
2018-03-08T03:23:03.528Z,85.00
2018-03-08T03:25:07.413Z,85.30
2018-03-08T03:27:11.544Z,85.50
2018-03-08T03:29:16.518Z,85.50
2018-03-08T03:31:21.358Z,85.40
2018-03-08T03:33:24.690Z,85.60
2018-03-08T03:35:28.959Z,86.10
2018-03-08T03:37:32.293Z,86.10
2018-03-08T03:39:36.401Z,85.90
2018-03-08T03:41:40.513Z,86.90
2018-03-08T03:43:43.922Z,86.90
2018-03-08T03:45:47.270Z,86.70
2018-03-08T03:47:50.597Z,87.40
2018-03-08T03:49:54.701Z,87.10
2018-03-08T03:51:58.802Z,86.80
2018-03-08T03:54:03.616Z,86.40
2018-03-08T03:56:07.197Z,86.40
2018-03-08T03:58:10.544Z,86.40
2018-03-08T04:00:14.485Z,86.70
2018-03-08T04:02:18.780Z,86.50
2018-03-08T04:04:22.184Z,86.50
2018-03-08T04:06:25.501Z,86.50
2018-03-08T04:08:28.827Z,86.00
2018-03-08T04:10:32.921Z,87.30
2018-03-08T04:12:37.017Z,87.60
2018-03-08T04:14:41.531Z,87.60
2018-03-08T04:16:44.892Z,88.30
2018-03-08T04:18:49.039Z,88.00
2018-03-08T04:20:53.317Z,88.30
2018-03-08T04:22:56.644Z,88.30
2018-03-08T04:25:00.001Z,88.40
2018-03-08T04:27:03.392Z,88.60
2018-03-08T04:29:07.609Z,88.90
2018-03-08T04:31:10.999Z,89.30
2018-03-08T04:33:14.355Z,89.40
2018-03-08T04:35:17.770Z,89.70
2018-03-08T04:37:21.133Z,90.00
2018-03-08T04:39:26.043Z,89.60
2018-03-08T04:41:31.042Z,89.50
2018-03-08T04:43:35.190Z,89.70
2018-03-08T04:45:40.249Z,90.00
2018-03-08T04:47:43.599Z,90.00
2018-03-08T04:49:47.143Z,89.20
2018-03-08T04:51:51.384Z,88.80
2018-03-08T04:53:54.749Z,88.60
2018-03-08T04:55:59.891Z,87.90
2018-03-08T04:58:03.251Z,87.80
2018-03-08T05:00:06.673Z,88.10
2018-03-08T05:02:17.155Z,88.00
2018-03-08T05:04:21.305Z,87.90
2018-03-08T05:06:25.862Z,88.40
2018-03-08T05:08:29.857Z,88.30
2018-03-08T05:10:34.131Z,88.60
2018-03-08T05:12:38.773Z,89.60
2018-03-08T05:14:42.382Z,89.60
2018-03-08T05:16:45.730Z,87.70
2018-03-08T05:18:49.044Z,88.30
2018-03-08T05:20:53.116Z,87.80
2018-03-08T05:22:56.535Z,87.50
2018-03-08T05:25:00.157Z,87.90
2018-03-08T05:27:04.197Z,88.80
2018-03-08T05:29:08.781Z,88.40
2018-03-08T05:31:13.015Z,88.50
2018-03-08T05:33:17.329Z,88.40
2018-03-08T05:35:21.222Z,88.20
2018-03-08T05:37:25.707Z,88.90
2018-03-08T05:39:29.382Z,88.40
2018-03-08T05:41:32.708Z,88.80
2018-03-08T05:43:36.086Z,88.40
2018-03-08T05:45:39.400Z,88.20
2018-03-08T05:47:43.483Z,87.90
2018-03-08T05:49:46.803Z,87.90
2018-03-08T05:51:50.139Z,88.40
2018-03-08T05:53:53.486Z,88.20
2018-03-08T05:55:56.800Z,87.80
2018-03-08T05:58:00.117Z,87.80
2018-03-08T06:00:03.438Z,87.60
2018-03-08T06:02:06.751Z,87.50
2018-03-08T06:04:10.101Z,87.60
2018-03-08T06:06:13.644Z,88.20
2018-03-08T06:08:17.011Z,88.10
2018-03-08T06:10:21.118Z,88.50
2018-03-08T06:12:25.231Z,88.60
2018-03-08T06:14:29.349Z,88.70
2018-03-08T06:16:33.421Z,88.80
2018-03-08T06:18:36.816Z,88.70
2018-03-08T06:20:40.170Z,89.10
2018-03-08T06:22:43.497Z,88.90
2018-03-08T06:24:46.835Z,88.40
2018-03-08T06:26:50.187Z,88.70
2018-03-08T06:28:54.238Z,88.70
2018-03-08T06:30:57.636Z,88.60
2018-03-08T06:33:01.088Z,89.20
2018-03-08T06:35:05.133Z,90.00
2018-03-08T06:37:09.949Z,88.90
2018-03-08T06:39:13.294Z,89.60
2018-03-08T06:41:16.633Z,89.40
2018-03-08T06:43:19.955Z,89.60
2018-03-08T06:45:23.299Z,89.50
2018-03-08T06:47:27.391Z,89.00
2018-03-08T06:49:30.722Z,89.00
2018-03-08T06:51:34.055Z,89.20
2018-03-08T06:53:37.365Z,89.30
2018-03-08T06:55:40.713Z,89.10
2018-03-08T06:57:44.031Z,88.90
2018-03-08T06:59:47.415Z,88.70
2018-03-08T07:01:51.705Z,89.00
2018-03-08T07:03:55.050Z,89.50
2018-03-08T07:05:59.306Z,88.40
2018-03-08T07:08:03.403Z,88.30
2018-03-08T07:10:08.026Z,87.90
2018-03-08T07:12:11.367Z,87.70
2018-03-08T07:14:15.707Z,89.50
2018-03-08T07:16:22.043Z,88.00
2018-03-08T07:18:25.498Z,88.10
2018-03-08T07:20:29.688Z,88.30
2018-03-08T07:22:33.040Z,87.90
2018-03-08T07:24:37.158Z,87.90
2018-03-08T07:26:40.633Z,88.00
2018-03-08T07:28:44.271Z,87.80
2018-03-08T07:30:47.597Z,88.10
2018-03-08T07:32:50.922Z,87.80
2018-03-08T07:34:54.289Z,87.50
2018-03-08T07:36:57.776Z,87.30
2018-03-08T07:39:01.136Z,87.40
2018-03-08T07:41:04.520Z,87.00
2018-03-08T07:43:08.617Z,87.00
2018-03-08T07:45:12.718Z,86.80
2018-03-08T07:47:16.841Z,87.00
2018-03-08T07:49:20.922Z,86.70
2018-03-08T07:51:24.261Z,86.90
2018-03-08T07:53:28.345Z,86.10
2018-03-08T07:55:32.448Z,86.20
2018-03-08T07:57:35.824Z,86.10
2018-03-08T07:59:39.183Z,86.50
2018-03-08T08:01:42.663Z,86.20
2018-03-08T08:03:46.093Z,86.50
2018-03-08T08:06:01.313Z,85.90
2018-03-08T08:08:16.450Z,86.40
2018-03-08T08:10:20.725Z,85.60
2018-03-08T08:12:24.848Z,86.70
2018-03-08T08:14:28.227Z,86.40
2018-03-08T08:16:31.560Z,86.20
2018-03-08T08:18:35.794Z,86.80
2018-03-08T08:20:39.887Z,86.30
2018-03-08T08:22:43.299Z,86.20
2018-03-08T08:24:47.279Z,86.30
2018-03-08T08:26:52.959Z,85.40
2018-03-08T08:28:57.141Z,85.50
2018-03-08T08:31:03.301Z,86.30
2018-03-08T08:33:10.541Z,86.10
2018-03-08T08:35:14.776Z,86.00
2018-03-08T08:37:18.091Z,86.30
2018-03-08T08:39:21.492Z,86.50
2018-03-08T08:41:28.099Z,86.20
2018-03-08T08:43:33.158Z,87.10
2018-03-08T08:45:38.088Z,86.10
2018-03-08T08:47:41.574Z,85.60
2018-03-08T08:49:45.098Z,85.60
2018-03-08T08:51:49.206Z,86.70
2018-03-08T08:53:54.234Z,85.30
2018-03-08T08:55:58.394Z,85.60
2018-03-08T08:58:01.801Z,85.30
2018-03-08T09:00:07.546Z,86.20
2018-03-08T09:02:13.738Z,86.30
2018-03-08T09:04:19.039Z,86.10
2018-03-08T09:06:22.430Z,86.20
2018-03-08T09:08:26.292Z,86.70
2018-03-08T09:10:30.491Z,85.20
2018-03-08T09:12:34.654Z,85.10
2018-03-08T09:14:39.007Z,84.80
2018-03-08T09:16:43.025Z,84.90
2018-03-08T09:18:46.342Z,84.90
2018-03-08T09:20:49.702Z,84.50
2018-03-08T09:22:54.050Z,84.50
2018-03-08T09:24:57.361Z,84.30
2018-03-08T09:27:00.724Z,84.80
2018-03-08T09:29:04.046Z,83.60
2018-03-08T09:31:07.397Z,84.10
2018-03-08T09:33:11.681Z,81.30
2018-03-08T09:35:14.993Z,81.30
2018-03-08T09:37:20.347Z,81.00
2018-03-08T09:39:25.875Z,80.20
2018-03-08T09:41:29.996Z,78.50
2018-03-08T09:43:34.309Z,78.60
2018-03-08T09:45:38.828Z,78.50
2018-03-08T09:47:42.320Z,77.80
2018-03-08T09:49:46.573Z,77.20
2018-03-08T09:51:50.163Z,77.20
2018-03-08T09:53:53.546Z,76.90
2018-03-08T09:55:56.943Z,74.70
2018-03-08T09:58:00.614Z,74.50
2018-03-08T10:00:04.056Z,74.80
2018-03-08T10:02:08.226Z,71.90
2018-03-08T10:04:11.651Z,72.10
2018-03-08T10:06:15.061Z,73.60
2018-03-08T10:08:18.456Z,72.60
2018-03-08T10:10:22.715Z,73.30
2018-03-08T10:12:26.189Z,73.10
2018-03-08T10:14:31.424Z,73.30
2018-03-08T10:16:34.868Z,73.50
2018-03-08T10:18:38.312Z,73.00
2018-03-08T10:20:41.728Z,71.40
2018-03-08T10:22:45.315Z,71.20
2018-03-08T10:24:48.733Z,71.10
2018-03-08T10:26:52.369Z,69.90
2018-03-08T10:28:55.827Z,70.80
2018-03-08T10:30:59.423Z,73.20
2018-03-08T10:33:02.817Z,68.10
2018-03-08T10:35:06.283Z,63.60
2018-03-08T10:37:10.030Z,56.90
2018-03-08T10:41:17.703Z,56.90
2018-03-08T10:43:21.345Z,55.10
2018-03-08T10:45:26.110Z,52.30
2018-03-08T10:47:29.886Z,52.10
2018-03-08T10:49:34.828Z,45.60
2018-03-08T10:51:38.282Z,45.60
2018-03-08T10:53:41.713Z,44.30
2018-03-08T10:55:46.226Z,44.20
2018-03-08T10:57:49.675Z,46.00
2018-03-08T10:59:53.291Z,47.90
2018-03-08T11:02:03.031Z,42.20
2018-03-08T11:04:13.528Z,42.90
2018-03-08T11:06:21.222Z,43.40
2018-03-08T11:08:24.591Z,42.40
2018-03-08T11:10:28.800Z,44.50
2018-03-08T11:12:32.986Z,41.70
2018-03-08T11:14:36.380Z,41.70
2018-03-08T11:16:39.866Z,39.10
2018-03-08T11:18:43.267Z,32.70
2018-03-08T11:20:46.628Z,31.40
2018-03-08T11:22:50.668Z,33.30
2018-03-08T11:24:54.369Z,32.30
2018-03-08T11:26:57.768Z,34.00
2018-03-08T11:29:01.431Z,37.80
2018-03-08T11:31:04.827Z,35.50
2018-03-08T11:33:08.286Z,37.20
2018-03-08T11:35:12.497Z,36.70
2018-03-08T11:37:15.961Z,36.80
2018-03-08T11:39:20.888Z,33.30
2018-03-08T11:41:24.548Z,33.20
2018-03-08T11:43:28.809Z,28.50
2018-03-08T11:45:33.251Z,29.60
2018-03-08T11:47:36.838Z,29.20
2018-03-08T11:49:40.500Z,27.50
2018-03-08T11:51:44.078Z,28.20
2018-03-08T11:53:47.453Z,29.30
2018-03-08T11:55:50.996Z,28.20
2018-03-08T11:57:54.452Z,27.20
2018-03-08T11:59:57.823Z,26.40
2018-03-08T12:02:02.061Z,25.50
2018-03-08T12:04:05.486Z,25.30
2018-03-08T12:06:09.690Z,23.70
2018-03-08T12:08:13.170Z,23.50
2018-03-08T12:10:18.141Z,23.10
2018-03-08T12:12:22.470Z,21.60
2018-03-08T12:14:25.948Z,21.60
2018-03-08T12:16:29.343Z,21.90
2018-03-08T12:18:32.737Z,22.50
2018-03-08T12:20:36.898Z,21.70
2018-03-08T12:22:40.263Z,21.80
2018-03-08T12:24:44.150Z,22.60
2018-03-08T12:26:48.361Z,18.20
2018-03-08T12:28:52.055Z,18.00
2018-03-08T12:30:56.266Z,13.70
2018-03-08T12:33:00.616Z,13.80
2018-03-08T12:35:04.084Z,14.10
2018-03-08T12:37:08.631Z,13.60
2018-03-08T12:39:12.088Z,13.20
2018-03-08T12:41:16.496Z,12.80
2018-03-08T12:43:20.734Z,11.20
2018-03-08T12:45:25.399Z,11.20
2018-03-08T12:47:32.818Z,11.20
2018-03-08T12:49:37.058Z,7.10
2018-03-08T12:51:40.613Z,7.20
2018-03-08T12:53:44.066Z,7.90
2018-03-08T12:55:47.590Z,8.80
2018-03-08T12:57:50.974Z,9.80
2018-03-08T12:59:54.701Z,11.10
2018-03-08T13:01:58.248Z,11.70
2018-03-08T13:04:01.774Z,9.80
2018-03-08T13:06:05.412Z,10.30
2018-03-08T13:08:08.900Z,10.00
2018-03-08T13:10:12.320Z,10.30
2018-03-08T13:12:15.843Z,8.90
2018-03-08T13:14:20.085Z,9.60
2018-03-08T13:16:23.613Z,8.70
2018-03-08T13:18:26.994Z,7.10
2018-03-08T13:20:30.423Z,7.90
2018-03-08T13:22:33.908Z,9.10
2018-03-08T13:24:37.369Z,9.40
2018-03-08T13:26:40.816Z,9.70
2018-03-08T13:28:44.228Z,11.20
2018-03-08T13:30:47.882Z,10.40
2018-03-08T13:32:51.301Z,11.30
2018-03-08T13:34:54.673Z,10.60
2018-03-08T13:36:58.212Z,10.60
2018-03-08T13:39:02.749Z,10.70
2018-03-08T13:41:07.175Z,10.40
2018-03-08T13:43:10.657Z,10.50
2018-03-08T13:45:15.148Z,11.50
2018-03-08T13:47:18.517Z,11.70
2018-03-08T13:49:33.889Z,11.60
2018-03-08T13:51:38.164Z,9.30
2018-03-08T13:53:42.480Z,9.60
2018-03-08T13:55:45.992Z,9.70
2018-03-08T13:57:49.462Z,9.80
2018-03-08T13:59:53.740Z,8.80
2018-03-08T14:01:58.988Z,6.80
2018-03-08T14:04:02.355Z,6.80
2018-03-08T14:06:05.769Z,7.10
2018-03-08T14:08:10.087Z,4.80
2018-03-08T14:10:13.538Z,5.50
2018-03-08T14:12:17.032Z,5.60
2018-03-08T14:14:21.159Z,5.80
2018-03-08T14:16:25.416Z,6.10
2018-03-08T14:18:29.624Z,6.90
2018-03-08T14:20:34.036Z,5.90
2018-03-08T14:22:38.435Z,6.20
2018-03-08T14:24:41.944Z,6.10
2018-03-08T14:26:46.030Z,6.30
2018-03-08T14:28:50.087Z,6.70
2018-03-08T14:30:53.533Z,7.70
2018-03-08T14:32:56.985Z,7.80
2018-03-08T14:35:00.387Z,7.00
2018-03-08T14:39:12.453Z,7.60
2018-03-08T14:41:16.618Z,7.50
2018-03-08T14:43:20.037Z,7.40
2018-03-08T14:45:23.646Z,7.50
2018-03-08T14:47:28.172Z,7.70
2018-03-08T14:49:31.803Z,7.00
2018-03-08T14:51:35.984Z,6.70
2018-03-08T14:53:39.788Z,6.80
2018-03-08T14:55:44.667Z,5.40
2018-03-08T14:57:48.209Z,4.90
2018-03-08T14:59:51.584Z,5.50
2018-03-08T15:01:55.058Z,5.50
2018-03-08T15:03:58.557Z,5.10
2018-03-08T15:06:01.946Z,5.80
2018-03-08T15:08:05.263Z,5.80
2018-03-08T15:10:08.603Z,5.40
2018-03-08T15:12:12.896Z,6.80
2018-03-08T15:14:16.276Z,6.70
2018-03-08T15:16:19.625Z,7.10
2018-03-08T15:18:23.670Z,5.20
2018-03-08T15:20:27.224Z,6.50
2018-03-08T15:22:30.698Z,4.80
2018-03-08T15:24:34.585Z,5.20
2018-03-08T15:26:37.907Z,5.70
2018-03-08T15:28:42.034Z,5.20
2018-03-08T15:30:45.456Z,5.20
2018-03-08T15:32:48.786Z,4.90
2018-03-08T15:34:52.403Z,4.80
2018-03-08T15:36:55.792Z,5.90
2018-03-08T15:39:00.771Z,6.20
2018-03-08T15:41:04.134Z,6.10
2018-03-08T15:43:08.296Z,6.00
2018-03-08T15:45:12.548Z,4.90
2018-03-08T15:47:15.897Z,4.60
2018-03-08T15:49:20.090Z,3.30
2018-03-08T15:51:23.403Z,2.90
2018-03-08T15:53:26.721Z,2.90
2018-03-08T15:55:30.070Z,3.90
2018-03-08T15:57:33.479Z,4.30
2018-03-08T15:59:37.328Z,4.00
2018-03-08T16:01:40.810Z,4.20
2018-03-08T16:03:45.804Z,4.70
2018-03-08T16:05:50.514Z,4.20
2018-03-08T16:10:39.930Z,4.60
2018-03-08T16:12:45.177Z,4.70
2018-03-08T16:14:48.900Z,4.30
2018-03-08T16:16:53.772Z,5.20
2018-03-08T16:18:57.834Z,5.20
2018-03-08T16:21:02.502Z,5.40
2018-03-08T16:23:06.609Z,5.30
2018-03-08T16:25:11.358Z,5.80
2018-03-08T16:27:15.011Z,5.30
2018-03-08T16:29:19.302Z,5.70
2018-03-08T16:31:22.613Z,6.50
2018-03-08T16:33:26.931Z,5.60
2018-03-08T16:35:30.416Z,6.50
2018-03-08T16:37:33.824Z,6.30
2018-03-08T16:39:37.209Z,6.30
2018-03-08T16:41:40.526Z,5.40
2018-03-08T16:43:43.824Z,5.10
2018-03-08T16:45:47.183Z,5.30
2018-03-08T16:47:51.130Z,6.80
2018-03-08T16:49:55.019Z,7.00
2018-03-08T16:52:01.324Z,6.90
2018-03-08T16:54:08.021Z,7.10
2018-03-08T16:56:11.471Z,7.10
2018-03-08T16:58:15.117Z,7.70
2018-03-08T17:00:18.618Z,7.00
2018-03-08T17:02:22.724Z,7.30
2018-03-08T17:04:26.433Z,7.90
2018-03-08T17:06:29.750Z,7.50
2018-03-08T17:08:34.498Z,8.20
2018-03-08T17:10:37.927Z,8.20
2018-03-08T17:12:41.259Z,8.10
2018-03-08T17:14:44.620Z,7.60
2018-03-08T17:16:48.606Z,7.70
2018-03-08T17:18:52.055Z,9.90
2018-03-08T17:20:55.379Z,9.50
2018-03-08T17:22:58.709Z,8.50
2018-03-08T17:25:02.060Z,8.60
2018-03-08T17:27:06.554Z,8.70
2018-03-08T17:29:11.027Z,8.80
2018-03-08T17:31:15.179Z,9.00
2018-03-08T17:33:18.523Z,8.90
2018-03-08T17:35:21.992Z,9.00
2018-03-08T17:37:25.387Z,9.40
2018-03-08T17:39:28.783Z,9.60
2018-03-08T17:41:32.126Z,9.60
2018-03-08T17:43:36.258Z,11.90
2018-03-08T17:45:40.081Z,11.90
2018-03-08T17:47:44.302Z,13.10
2018-03-08T17:49:47.710Z,13.40
2018-03-08T17:51:52.309Z,14.80
2018-03-08T17:53:55.685Z,14.80
2018-03-08T17:55:59.113Z,18.00
2018-03-08T17:58:02.447Z,19.80
2018-03-08T18:00:05.780Z,27.10
2018-03-08T18:02:09.943Z,36.20
2018-03-08T18:04:14.062Z,41.60
2018-03-08T18:06:17.560Z,41.60
2018-03-08T18:08:21.004Z,42.40
2018-03-08T18:10:25.152Z,39.20
2018-03-08T18:12:29.859Z,44.10
2018-03-08T18:14:34.401Z,49.50
2018-03-08T18:16:39.431Z,51.80
2018-03-08T18:18:42.749Z,52.00
2018-03-08T18:20:47.446Z,55.20
2018-03-08T18:22:50.824Z,56.60
2018-03-08T18:24:54.894Z,60.70
2018-03-08T18:26:59.254Z,60.70
2018-03-08T18:29:02.761Z,64.00
2018-03-08T18:31:06.708Z,64.20
2018-03-08T18:33:10.087Z,66.40
2018-03-08T18:35:13.480Z,67.80
2018-03-08T18:37:17.354Z,70.60
2018-03-08T18:39:20.663Z,71.60
2018-03-08T18:41:25.107Z,75.50
2018-03-08T18:43:28.504Z,76.50
2018-03-08T18:45:32.772Z,78.80
2018-03-08T18:47:36.095Z,78.20
2018-03-08T18:49:39.421Z,80.00
2018-03-08T18:51:43.514Z,78.90
2018-03-08T18:53:46.867Z,79.40
2018-03-08T18:55:50.245Z,80.60
2018-03-08T18:57:53.576Z,79.00
2018-03-08T18:59:58.361Z,79.90
2018-03-08T19:02:01.715Z,79.80
2018-03-08T19:04:06.621Z,81.10
2018-03-08T19:06:10.039Z,81.90
2018-03-08T19:08:13.383Z,82.20
2018-03-08T19:10:17.563Z,83.30
2018-03-08T19:12:22.883Z,84.10
2018-03-08T19:14:27.055Z,84.20
2018-03-08T19:16:30.379Z,84.70
2018-03-08T19:18:35.309Z,83.50
2018-03-08T19:20:40.317Z,83.80
2018-03-08T19:22:43.644Z,83.70
2018-03-08T19:24:48.209Z,82.80
2018-03-08T19:26:51.544Z,82.80
2018-03-08T19:28:57.462Z,83.20
2018-03-08T19:31:00.869Z,83.50
2018-03-08T19:33:04.199Z,83.80
2018-03-08T19:35:08.685Z,83.20
2018-03-08T19:37:13.444Z,83.30
2018-03-08T19:39:17.902Z,84.20
2018-03-08T19:41:21.248Z,84.10
2018-03-08T19:43:26.408Z,81.10
2018-03-08T19:45:29.719Z,81.30
2018-03-08T19:47:33.038Z,80.60
2018-03-08T19:49:37.120Z,81.50
2018-03-08T19:51:40.488Z,81.50
2018-03-08T19:53:43.915Z,80.00
2018-03-08T19:55:47.255Z,81.30
2018-03-08T19:57:50.596Z,80.20
2018-03-08T20:02:39.408Z,80.80
2018-03-08T20:04:42.742Z,80.30
2018-03-08T20:06:46.152Z,79.80
2018-03-08T20:08:49.483Z,80.90
2018-03-08T20:10:52.873Z,81.80
2018-03-08T20:12:56.259Z,81.20
2018-03-08T20:14:59.687Z,81.00
2018-03-08T20:17:03.038Z,82.10
2018-03-08T20:19:07.423Z,81.20
2018-03-08T20:21:10.903Z,81.10
2018-03-08T20:23:14.343Z,82.30
2018-03-08T20:25:18.593Z,82.30
2018-03-08T20:27:21.922Z,83.40
2018-03-08T20:29:25.243Z,84.00
2018-03-08T20:31:29.643Z,85.80
2018-03-08T20:33:35.170Z,85.20
2018-03-08T20:35:38.506Z,84.40
2018-03-08T20:37:42.029Z,84.60
2018-03-08T20:39:46.017Z,83.80
2018-03-08T20:41:49.682Z,83.90
2018-03-08T20:43:53.795Z,84.00
2018-03-08T20:45:58.018Z,83.60
2018-03-08T20:48:01.434Z,83.80
2018-03-08T20:50:05.728Z,83.90
2018-03-08T20:52:09.110Z,83.00
2018-03-08T20:54:13.389Z,83.70
2018-03-08T20:56:16.712Z,83.80
2018-03-08T20:58:20.839Z,84.50
2018-03-08T21:00:24.204Z,84.40
2018-03-08T21:02:28.334Z,84.50
2018-03-08T21:04:31.771Z,84.10
2018-03-08T21:06:35.922Z,84.90
2018-03-08T21:08:41.034Z,85.30
2018-03-08T21:10:44.484Z,85.40
2018-03-08T21:12:47.869Z,86.40
2018-03-08T21:14:51.208Z,86.50
2018-03-08T21:16:56.706Z,88.10
2018-03-08T21:19:01.029Z,87.40
2018-03-08T21:21:05.332Z,87.60
2018-03-08T21:23:08.995Z,88.20
2018-03-08T21:27:29.449Z,86.10
2018-03-08T21:29:34.604Z,86.20
2018-03-08T21:31:39.818Z,88.10
2018-03-08T21:33:43.164Z,88.10
2018-03-08T21:35:46.584Z,88.20
2018-03-08T21:37:49.912Z,88.40
2018-03-08T21:39:53.336Z,89.80
2018-03-08T21:41:57.461Z,89.40
2018-03-08T21:44:00.796Z,89.30
2018-03-08T21:46:04.164Z,90.00
2018-03-08T21:48:08.366Z,88.70
2018-03-08T21:50:11.698Z,88.90
2018-03-08T21:52:15.057Z,88.90
2018-03-08T21:54:18.375Z,89.30
2018-03-08T21:56:21.757Z,90.00
2018-03-08T21:58:25.080Z,90.20
2018-03-08T22:00:28.388Z,89.30
2018-03-08T22:02:32.514Z,88.60
2018-03-08T22:04:35.845Z,88.60
2018-03-08T22:06:39.517Z,90.00
2018-03-08T22:08:42.890Z,90.10
2018-03-08T22:10:46.979Z,90.30
2018-03-08T22:12:50.326Z,90.30
2018-03-08T22:14:53.663Z,90.10
2018-03-08T22:16:57.032Z,90.10
2018-03-08T22:19:00.368Z,90.20
2018-03-08T22:21:03.739Z,89.10
2018-03-08T22:23:07.129Z,88.50
2018-03-08T22:25:11.236Z,89.60
2018-03-08T22:27:14.583Z,89.50
2018-03-08T22:29:17.921Z,90.00
2018-03-08T22:31:21.256Z,90.40
2018-03-08T22:33:24.616Z,89.10
2018-03-08T22:35:28.704Z,88.50
2018-03-08T22:37:32.088Z,88.40
2018-03-08T22:39:36.299Z,88.50
2018-03-08T22:41:40.340Z,87.70
2018-03-08T22:43:43.966Z,87.50
2018-03-08T22:45:47.324Z,87.90
2018-03-08T22:47:50.720Z,87.20
2018-03-08T22:49:54.092Z,87.30
2018-03-08T22:51:57.427Z,89.00
2018-03-08T22:54:00.825Z,89.40
2018-03-08T22:56:04.187Z,89.30
2018-03-08T22:58:08.352Z,89.40
2018-03-08T23:00:11.687Z,89.30
2018-03-08T23:02:15.779Z,89.20
2018-03-08T23:04:19.947Z,89.80
2018-03-08T23:06:23.280Z,89.80
2018-03-08T23:08:28.812Z,89.10
2018-03-08T23:10:32.223Z,89.00
2018-03-08T23:12:36.323Z,88.30
2018-03-08T23:14:39.719Z,88.00
2018-03-08T23:16:43.309Z,89.20
2018-03-08T23:18:46.816Z,88.80
2018-03-08T23:20:50.342Z,87.50
2018-03-08T23:22:54.508Z,88.80
2018-03-08T23:24:57.862Z,88.90
2018-03-08T23:27:01.177Z,88.40
2018-03-08T23:29:05.719Z,88.30
2018-03-08T23:31:11.225Z,88.50
2018-03-08T23:33:17.578Z,89.30
2018-03-08T23:35:22.051Z,89.20
2018-03-08T23:37:25.392Z,88.30
2018-03-08T23:39:28.744Z,89.30
2018-03-08T23:41:32.317Z,88.90
2018-03-08T23:43:35.663Z,89.00
2018-03-08T23:45:39.555Z,88.80
2018-03-08T23:47:42.975Z,88.90
2018-03-08T23:49:46.291Z,88.60
2018-03-08T23:51:49.670Z,88.70
2018-03-08T23:53:53.011Z,88.80
2018-03-08T23:55:56.394Z,87.80
2018-03-08T23:58:00.479Z,88.10
